createdAt,value
2022-11-28T00:00:54.120Z,23.90
2022-11-28T00:03:26.097Z,24.15
2022-11-28T00:06:03.330Z,20.70
2022-11-28T00:08:36.067Z,20.02
2022-11-28T00:11:11.958Z,18.10
2022-11-28T00:13:44.546Z,19.98
2022-11-28T00:16:20.477Z,18.88
2022-11-28T00:18:55.087Z,16.80
2022-11-28T00:21:27.359Z,17.10
2022-11-28T00:24:00.368Z,15.02
2022-11-28T00:26:35.751Z,18.20
2022-11-28T00:29:09.551Z,21.40
2022-11-28T00:31:42.938Z,19.77
2022-11-28T00:34:16.039Z,19.75
2022-11-28T00:36:48.608Z,19.48
2022-11-28T00:39:20.613Z,21.48
2022-11-28T00:41:53.894Z,22.92
2022-11-28T00:44:25.814Z,21.17
2022-11-28T00:46:57.776Z,21.42
2022-11-28T00:49:29.768Z,18.55
2022-11-28T00:52:01.727Z,21.77
2022-11-28T00:54:33.728Z,21.80
2022-11-28T00:57:07.024Z,18.63
2022-11-28T00:59:39.196Z,20.35
2022-11-28T01:02:11.186Z,19.58
2022-11-28T01:04:43.669Z,17.15
2022-11-28T01:07:16.081Z,18.88
2022-11-28T01:09:48.037Z,18.50
2022-11-28T01:12:21.442Z,17.48
2022-11-28T01:14:53.766Z,20.60
2022-11-28T01:17:25.671Z,17.58
2022-11-28T01:19:57.590Z,17.88
2022-11-28T01:22:29.509Z,17.10
2022-11-28T01:25:01.489Z,18.10
2022-11-28T01:27:34.969Z,17.33
2022-11-28T01:30:08.234Z,18.08
2022-11-28T01:32:40.148Z,18.70
2022-11-28T01:35:12.156Z,15.68
2022-11-28T01:37:44.047Z,15.55
2022-11-28T01:40:16.049Z,15.48
2022-11-28T01:42:49.312Z,19.38
2022-11-28T01:45:23.625Z,16.95
2022-11-28T01:48:00.180Z,18.17
2022-11-28T01:50:33.138Z,17.65
2022-11-28T01:53:09.167Z,16.40
2022-11-28T01:55:47.966Z,15.45
2022-11-28T01:58:21.785Z,16.88
2022-11-28T02:00:54.562Z,16.38
2022-11-28T02:03:31.024Z,18.38
2022-11-28T02:06:03.208Z,16.27
2022-11-28T02:08:36.381Z,17.05
2022-11-28T02:11:29.219Z,17.45
2022-11-28T02:14:13.459Z,15.98
2022-11-28T02:16:55.470Z,15.35
2022-11-28T02:20:05.651Z,15.88
2022-11-28T02:22:44.317Z,15.48
2022-11-28T02:25:35.771Z,15.90
2022-11-28T02:28:43.429Z,15.23
2022-11-28T02:31:34.068Z,16.65
2022-11-28T02:34:13.522Z,15.77
2022-11-28T02:36:50.926Z,19.13
2022-11-28T02:39:36.593Z,16.70
2022-11-28T02:42:14.556Z,19.05
2022-11-28T02:44:55.928Z,16.77
2022-11-28T02:47:33.483Z,18.58
2022-11-28T02:50:12.047Z,16.35
2022-11-28T02:52:49.467Z,15.80
2022-11-28T02:55:21.764Z,14.07
2022-11-28T02:57:54.815Z,16.50
2022-11-28T03:00:30.084Z,14.07
2022-11-28T03:03:22.156Z,17.25
2022-11-28T03:06:00.426Z,15.45
2022-11-28T03:08:42.847Z,12.18
2022-11-28T03:11:20.060Z,13.43
2022-11-28T03:13:56.623Z,13.65
2022-11-28T03:16:31.298Z,14.23
2022-11-28T03:19:10.860Z,16.45
2022-11-28T03:21:52.341Z,11.80
2022-11-28T03:24:33.370Z,14.45
2022-11-28T03:27:13.784Z,11.65
2022-11-28T03:29:51.167Z,16.60
2022-11-28T03:32:27.590Z,13.52
2022-11-28T03:35:06.318Z,18.75
2022-11-28T03:37:43.053Z,20.17
2022-11-28T03:40:22.373Z,17.95
2022-11-28T03:43:01.538Z,19.73
2022-11-28T03:45:38.319Z,19.70
2022-11-28T03:48:16.562Z,17.77
2022-11-28T03:50:53.424Z,18.67
2022-11-28T03:53:31.591Z,14.43
2022-11-28T03:56:11.393Z,15.43
2022-11-28T03:58:49.940Z,13.93
2022-11-28T04:01:30.225Z,13.70
2022-11-28T04:04:14.390Z,19.10
2022-11-28T04:06:54.212Z,19.75
2022-11-28T04:09:38.166Z,14.23
2022-11-28T04:12:20.485Z,14.00
2022-11-28T04:14:56.086Z,15.23
2022-11-28T04:17:35.284Z,15.55
2022-11-28T04:20:15.237Z,16.88
2022-11-28T04:22:52.758Z,16.95
2022-11-28T04:25:29.082Z,17.58
2022-11-28T04:28:05.103Z,17.13
2022-11-28T04:30:38.269Z,17.83
2022-11-28T04:33:13.322Z,15.48
2022-11-28T04:35:49.747Z,16.42
2022-11-28T04:38:25.207Z,15.63
2022-11-28T04:41:05.256Z,17.25
2022-11-28T04:43:42.020Z,15.55
2022-11-28T04:46:18.272Z,17.88
2022-11-28T04:48:50.298Z,17.50
2022-11-28T04:51:27.658Z,17.17
2022-11-28T04:54:02.952Z,17.67
2022-11-28T04:56:42.908Z,18.02
2022-11-28T04:59:15.421Z,16.90
2022-11-28T05:01:49.509Z,15.38
2022-11-28T05:04:21.655Z,18.20
2022-11-28T05:07:02.368Z,16.88
2022-11-28T05:09:34.747Z,15.63
2022-11-28T05:12:08.246Z,19.00
2022-11-28T05:14:41.183Z,18.13
2022-11-28T05:17:13.506Z,19.23
2022-11-28T05:19:45.459Z,20.35
2022-11-28T05:22:17.412Z,23.85
2022-11-28T05:24:49.393Z,24.05
2022-11-28T05:27:22.802Z,18.63
2022-11-28T05:29:54.757Z,19.02
2022-11-28T05:32:29.458Z,18.88
2022-11-28T05:35:01.424Z,20.77
2022-11-28T05:37:33.504Z,15.63
2022-11-28T05:40:06.904Z,18.83
2022-11-28T05:42:40.193Z,20.15
2022-11-28T05:45:12.118Z,16.77
2022-11-28T05:47:44.074Z,17.55
2022-11-28T05:50:16.125Z,21.00
2022-11-28T05:52:48.105Z,20.55
2022-11-28T05:55:20.093Z,21.58
2022-11-28T05:57:54.825Z,20.50
2022-11-28T06:00:26.719Z,22.33
2022-11-28T06:03:01.506Z,21.98
2022-11-28T06:05:43.315Z,18.52
2022-11-28T06:08:16.102Z,18.98
2022-11-28T06:10:56.702Z,20.98
2022-11-28T06:13:30.335Z,16.23
2022-11-28T06:16:02.343Z,18.17
2022-11-28T06:18:34.373Z,21.80
2022-11-28T06:21:07.420Z,22.10
2022-11-28T06:23:39.682Z,26.30
2022-11-28T06:26:13.954Z,20.85
2022-11-28T06:28:47.500Z,20.98
2022-11-28T06:31:21.690Z,19.65
2022-11-28T06:33:54.200Z,25.58
2022-11-28T06:36:26.836Z,18.83
2022-11-28T06:38:58.793Z,19.50
2022-11-28T06:41:30.853Z,18.90
2022-11-28T06:44:04.393Z,21.58
2022-11-28T06:46:36.394Z,20.58
2022-11-28T06:49:08.344Z,15.98
2022-11-28T06:51:40.621Z,17.10
2022-11-28T06:54:12.768Z,16.25
2022-11-28T06:56:44.951Z,17.10
2022-11-28T06:59:18.329Z,20.48
2022-11-28T07:01:50.332Z,20.40
2022-11-28T07:04:22.627Z,19.08
2022-11-28T07:06:54.631Z,15.95
2022-11-28T07:09:26.635Z,20.48
2022-11-28T07:11:58.627Z,17.00
2022-11-28T07:14:34.029Z,16.58
2022-11-28T07:17:06.061Z,17.58
2022-11-28T07:19:38.096Z,16.35
2022-11-28T07:22:11.413Z,14.50
2022-11-28T07:24:43.346Z,13.90
2022-11-28T07:27:15.354Z,15.70
2022-11-28T07:29:48.692Z,14.50
2022-11-28T07:32:20.613Z,16.02
2022-11-28T07:34:52.562Z,17.20
2022-11-28T07:37:24.501Z,14.68
2022-11-28T07:39:56.413Z,19.88
2022-11-28T07:42:28.444Z,17.23
2022-11-28T07:45:11.236Z,15.77
2022-11-28T07:47:43.218Z,18.58
2022-11-28T07:50:15.233Z,16.67
2022-11-28T07:52:49.818Z,14.73
2022-11-28T07:55:21.742Z,13.52
2022-11-28T07:57:53.655Z,14.45
2022-11-28T08:00:27.197Z,13.43
2022-11-28T08:02:59.248Z,16.48
2022-11-28T08:05:31.213Z,14.10
2022-11-28T08:08:03.326Z,17.70
2022-11-28T08:10:35.257Z,13.23
2022-11-28T08:13:07.212Z,14.00
2022-11-28T08:15:41.118Z,11.73
2022-11-28T08:18:13.108Z,15.65
2022-11-28T08:20:45.173Z,14.07
2022-11-28T08:23:17.194Z,14.80
2022-11-28T08:25:49.118Z,14.48
2022-11-28T08:28:21.058Z,15.55
2022-11-28T08:30:54.473Z,15.60
2022-11-28T08:33:26.514Z,15.80
2022-11-28T08:35:58.489Z,16.30
2022-11-28T08:38:30.633Z,17.08
2022-11-28T08:41:03.835Z,14.55
2022-11-28T08:43:37.125Z,14.93
2022-11-28T08:46:12.426Z,18.55
2022-11-28T08:48:44.678Z,14.50
2022-11-28T08:51:20.850Z,16.85
2022-11-28T08:53:59.169Z,16.75
2022-11-28T08:56:31.923Z,15.50
2022-11-28T08:59:04.070Z,20.60
2022-11-28T09:01:37.506Z,13.93
2022-11-28T09:04:09.624Z,13.10
2022-11-28T09:06:41.677Z,15.45
2022-11-28T09:09:13.683Z,13.57
2022-11-28T09:11:46.069Z,14.93
2022-11-28T09:14:18.019Z,14.98
2022-11-28T09:16:51.489Z,13.30
2022-11-28T09:19:24.025Z,13.68
2022-11-28T09:21:57.858Z,12.18
2022-11-28T09:24:30.195Z,14.15
2022-11-28T09:27:03.165Z,13.35
2022-11-28T09:29:35.161Z,15.48
2022-11-28T09:32:08.466Z,13.82
2022-11-28T09:34:40.791Z,14.20
2022-11-28T09:37:12.789Z,15.85
2022-11-28T09:40:11.483Z,13.10
2022-11-28T09:42:41.912Z,17.10
2022-11-28T09:45:18.482Z,14.68
2022-11-28T09:47:55.070Z,13.05
2022-11-28T09:50:32.956Z,12.98
2022-11-28T09:53:17.357Z,13.43
2022-11-28T09:55:52.686Z,15.48
2022-11-28T09:58:29.300Z,12.85
2022-11-28T10:01:13.493Z,14.85
2022-11-28T10:03:55.500Z,14.02
2022-11-28T10:06:35.834Z,18.23
2022-11-28T10:09:25.540Z,14.80
2022-11-28T10:12:18.381Z,14.73
2022-11-28T10:15:03.134Z,14.65
2022-11-28T10:17:46.667Z,17.20
2022-11-28T10:20:22.857Z,16.95
2022-11-28T10:22:57.910Z,18.13
2022-11-28T10:25:33.909Z,18.40
2022-11-28T10:28:11.321Z,16.73
2022-11-28T10:30:47.785Z,14.82
2022-11-28T10:33:25.342Z,17.30
2022-11-28T10:36:00.834Z,15.98
2022-11-28T10:38:34.828Z,15.13
2022-11-28T10:41:14.709Z,13.20
2022-11-28T10:43:54.055Z,14.00
2022-11-28T10:46:41.560Z,15.18
2022-11-28T10:49:26.106Z,14.65
2022-11-28T10:52:08.977Z,15.68
2022-11-28T10:54:54.928Z,17.60
2022-11-28T10:57:31.760Z,17.63
2022-11-28T11:00:12.351Z,15.18
2022-11-28T11:02:47.776Z,16.75
2022-11-28T11:05:24.244Z,17.67
2022-11-28T11:07:59.554Z,15.75
2022-11-28T11:10:39.160Z,16.42
2022-11-28T11:13:15.811Z,14.65
2022-11-28T11:15:51.307Z,13.45
2022-11-28T11:18:26.167Z,19.27
2022-11-28T11:21:09.891Z,14.70
2022-11-28T11:23:43.683Z,18.42
2022-11-28T11:26:25.765Z,17.40
2022-11-28T11:28:57.841Z,14.48
2022-11-28T11:31:32.823Z,18.98
2022-11-28T11:34:06.504Z,20.02
2022-11-28T11:36:38.546Z,18.30
2022-11-28T11:39:21.318Z,19.63
2022-11-28T11:42:16.575Z,22.35
2022-11-28T11:44:48.712Z,22.00
2022-11-28T11:47:41.249Z,21.65
2022-11-28T11:50:17.908Z,24.25
2022-11-28T11:53:05.212Z,16.75
2022-11-28T11:55:47.407Z,24.15
2022-11-28T11:58:22.257Z,21.13
2022-11-28T12:00:57.867Z,21.52
2022-11-28T12:03:36.767Z,15.43
2022-11-28T12:06:15.792Z,19.20
2022-11-28T12:08:51.406Z,15.85
2022-11-28T12:11:29.531Z,17.98
2022-11-28T12:14:14.248Z,16.95
2022-11-28T12:16:52.761Z,16.13
2022-11-28T12:19:35.729Z,16.25
2022-11-28T12:22:16.418Z,15.82
2022-11-28T12:25:00.211Z,18.95
2022-11-28T12:27:52.260Z,16.58
2022-11-28T12:30:40.388Z,16.90
2022-11-28T12:33:30.489Z,17.05
2022-11-28T12:36:11.078Z,19.10
2022-11-28T12:39:10.491Z,15.20
2022-11-28T12:42:16.035Z,14.03
2022-11-28T12:45:16.054Z,15.55
2022-11-28T12:47:56.007Z,15.02
2022-11-28T12:50:33.987Z,13.82
2022-11-28T12:53:24.141Z,15.48
2022-11-28T12:56:02.322Z,17.02
2022-11-28T12:58:40.904Z,16.65
2022-11-28T13:01:33.398Z,16.38
2022-11-28T13:04:14.546Z,14.23
2022-11-28T13:06:56.333Z,19.55
2022-11-28T13:09:31.853Z,18.63
2022-11-28T13:12:20.868Z,17.05
2022-11-28T13:14:55.427Z,18.65
2022-11-28T13:17:38.986Z,18.38
2022-11-28T13:20:20.361Z,17.35
2022-11-28T13:23:04.102Z,17.77
2022-11-28T13:25:45.254Z,21.60
2022-11-28T13:28:22.179Z,22.15
2022-11-28T13:31:03.672Z,23.83
2022-11-28T13:33:50.176Z,24.88
2022-11-28T13:39:35.970Z,19.42
2022-11-28T13:42:58.994Z,19.23
2022-11-28T13:45:28.400Z,19.75
2022-11-28T13:51:32.963Z,16.80
2022-11-28T13:54:43.022Z,21.80
2022-11-28T13:57:28.723Z,18.30
2022-11-28T14:00:05.153Z,22.38
2022-11-28T14:02:50.415Z,24.15
2022-11-28T14:05:30.724Z,26.35
2022-11-28T14:11:05.676Z,25.35
2022-11-28T14:13:55.977Z,21.75
2022-11-28T14:16:51.559Z,25.25
2022-11-28T14:19:38.411Z,20.30
2022-11-28T14:22:27.813Z,17.70
2022-11-28T14:25:08.456Z,18.45
2022-11-28T14:27:47.272Z,23.38
2022-11-28T14:30:26.753Z,18.95
2022-11-28T14:33:01.419Z,13.85
2022-11-28T14:36:03.453Z,20.33
2022-11-28T14:38:46.386Z,23.48
2022-11-28T14:41:20.686Z,19.55
2022-11-28T14:43:53.660Z,20.55
2022-11-28T14:46:30.995Z,17.17
2022-11-28T14:49:22.829Z,19.38
2022-11-28T14:52:44.436Z,17.95
2022-11-28T14:55:22.051Z,21.75
2022-11-28T14:57:58.734Z,22.77
2022-11-28T15:00:38.778Z,19.20
2022-11-28T15:03:24.980Z,20.10
2022-11-28T15:06:02.360Z,23.88
2022-11-28T15:08:51.691Z,27.60
2022-11-28T15:11:41.621Z,22.88
2022-11-28T15:14:22.603Z,25.00
2022-11-28T15:16:58.165Z,21.05
2022-11-28T15:19:34.676Z,19.48
2022-11-28T15:22:06.570Z,23.52
2022-11-28T15:24:38.719Z,21.08
2022-11-28T15:27:24.417Z,20.92
2022-11-28T15:29:59.301Z,24.70
2022-11-28T15:32:32.018Z,22.75
2022-11-28T15:35:12.504Z,24.10
2022-11-28T15:37:50.602Z,22.85
2022-11-28T15:40:27.760Z,23.30
2022-11-28T15:43:00.801Z,23.60
2022-11-28T15:45:35.527Z,19.30
2022-11-28T15:48:28.609Z,28.40
2022-11-28T15:51:00.990Z,34.25
2022-11-28T15:53:33.197Z,23.70
2022-11-28T15:56:10.407Z,27.02
2022-11-28T15:58:44.092Z,23.00
2022-11-28T16:01:19.665Z,22.60
2022-11-28T16:03:56.587Z,24.08
2022-11-28T16:06:30.858Z,23.40
2022-11-28T16:09:06.505Z,28.85
2022-11-28T16:11:38.572Z,25.17
2022-11-28T16:14:11.327Z,31.52
2022-11-28T16:16:44.770Z,32.65
2022-11-28T16:19:24.975Z,30.27
2022-11-28T16:22:00.179Z,46.50
2022-11-28T16:24:38.818Z,67.38
2022-11-28T16:29:58.972Z,41.58
2022-11-28T16:32:38.130Z,43.78
2022-11-28T16:35:12.634Z,32.40
2022-11-28T16:37:44.631Z,32.20
2022-11-28T16:40:20.902Z,34.75
2022-11-28T16:42:53.529Z,29.63
2022-11-28T16:45:27.681Z,34.63
2022-11-28T16:48:08.759Z,31.40
2022-11-28T16:51:11.058Z,27.88
2022-11-28T16:53:45.223Z,31.52
2022-11-28T16:56:24.851Z,30.40
2022-11-28T16:59:02.070Z,28.13
2022-11-28T17:01:34.413Z,27.27
2022-11-28T17:04:19.675Z,27.58
2022-11-28T17:06:53.074Z,25.52
2022-11-28T17:09:25.012Z,25.98
2022-11-28T17:12:02.282Z,28.92
2022-11-28T17:14:34.896Z,27.70
2022-11-28T17:17:13.351Z,30.60
2022-11-28T17:19:46.902Z,27.13
2022-11-28T17:22:21.182Z,31.52
2022-11-28T17:24:58.380Z,31.88
2022-11-28T17:27:30.315Z,50.58
2022-11-28T17:30:02.345Z,41.17
2022-11-28T17:32:34.329Z,37.10
2022-11-28T17:35:13.640Z,44.20
2022-11-28T17:37:46.197Z,65.10
2022-11-28T17:40:33.123Z,39.60
2022-11-28T17:43:05.405Z,31.13
2022-11-28T17:45:37.341Z,31.63
2022-11-28T17:48:13.642Z,33.00
2022-11-28T17:50:48.854Z,41.10
2022-11-28T17:53:21.612Z,34.97
2022-11-28T17:55:58.888Z,32.80
2022-11-28T17:58:31.058Z,28.30
2022-11-28T18:01:03.442Z,32.83
2022-11-28T18:03:35.403Z,42.42
2022-11-28T18:06:17.157Z,28.85
2022-11-28T18:08:50.549Z,32.58
2022-11-28T18:11:23.301Z,32.90
2022-11-28T18:13:55.531Z,48.42
2022-11-28T18:16:27.890Z,30.83
2022-11-28T18:18:59.944Z,32.47
2022-11-28T18:21:33.957Z,30.88
2022-11-28T18:24:06.718Z,37.80
2022-11-28T18:26:39.449Z,34.83
2022-11-28T18:29:11.430Z,34.10
2022-11-28T18:31:43.499Z,33.55
2022-11-28T18:34:16.734Z,29.77
2022-11-28T18:36:50.073Z,30.45
2022-11-28T18:39:21.967Z,28.67
2022-11-28T18:41:54.409Z,28.05
2022-11-28T18:44:26.372Z,32.80
2022-11-28T18:46:58.293Z,38.45
2022-11-28T18:49:30.597Z,35.72
2022-11-28T18:52:03.995Z,31.95
2022-11-28T18:54:38.445Z,33.88
2022-11-28T18:57:10.517Z,30.95
2022-11-28T18:59:49.913Z,28.90
2022-11-28T19:02:25.134Z,35.53
2022-11-28T19:04:57.298Z,39.78
2022-11-28T19:07:30.956Z,37.90
2022-11-28T19:10:03.494Z,38.20
2022-11-28T19:12:36.737Z,36.13
2022-11-28T19:15:10.833Z,39.55
2022-11-28T19:17:42.811Z,29.10
2022-11-28T19:20:14.929Z,80.45
2022-11-28T19:22:48.537Z,97.95
2022-11-28T19:25:20.451Z,31.38
2022-11-28T19:27:52.405Z,34.97
2022-11-28T19:30:24.347Z,30.75
2022-11-28T19:32:56.407Z,28.85
2022-11-28T19:35:28.481Z,26.30
2022-11-28T19:38:01.862Z,29.52
2022-11-28T19:40:33.765Z,28.08
2022-11-28T19:43:05.718Z,24.45
2022-11-28T19:45:37.705Z,27.52
2022-11-28T19:48:10.054Z,26.35
2022-11-28T19:50:48.428Z,27.38
2022-11-28T19:53:22.426Z,24.08
2022-11-28T19:55:55.128Z,23.75
2022-11-28T19:58:29.345Z,22.08
2022-11-28T20:01:05.348Z,21.40
2022-11-28T20:03:39.113Z,23.08
2022-11-28T20:06:13.714Z,24.35
2022-11-28T20:08:47.905Z,22.73
2022-11-28T20:11:21.779Z,23.60
2022-11-28T20:13:56.822Z,22.98
2022-11-28T20:16:30.249Z,21.83
2022-11-28T20:19:04.627Z,20.42
2022-11-28T20:21:36.891Z,22.25
2022-11-28T20:24:10.770Z,25.58
2022-11-28T20:26:44.117Z,22.65
2022-11-28T20:29:19.745Z,25.67
2022-11-28T20:31:54.375Z,24.42
2022-11-28T20:34:26.986Z,23.33
2022-11-28T20:36:59.537Z,22.70
2022-11-28T20:39:32.919Z,25.38
2022-11-28T20:42:05.172Z,29.55
2022-11-28T20:44:37.111Z,28.15
2022-11-28T20:47:11.007Z,29.83
2022-11-28T20:49:43.222Z,26.55
2022-11-28T20:52:15.402Z,27.27
2022-11-28T20:54:48.709Z,19.42
2022-11-28T20:57:22.257Z,29.27
2022-11-28T20:59:57.109Z,25.88
2022-11-28T21:02:29.047Z,23.08
2022-11-28T21:05:01.018Z,26.65
2022-11-28T21:07:33.337Z,26.58
2022-11-28T21:10:08.142Z,28.70
2022-11-28T21:12:40.041Z,24.23
2022-11-28T21:15:12.001Z,29.25
2022-11-28T21:17:44.366Z,25.00
2022-11-28T21:20:16.344Z,25.17
2022-11-28T21:22:48.236Z,21.98
2022-11-28T21:25:21.555Z,21.77
2022-11-28T21:27:53.458Z,22.83
2022-11-28T21:30:25.362Z,28.05
2022-11-28T21:32:57.271Z,27.98
2022-11-28T21:35:29.201Z,21.73
2022-11-28T21:38:01.128Z,26.55
2022-11-28T21:40:34.569Z,27.90
2022-11-28T21:43:06.442Z,19.75
2022-11-28T21:45:38.774Z,20.17
2022-11-28T21:48:10.724Z,21.83
2022-11-28T21:50:45.961Z,24.45
2022-11-28T21:53:18.283Z,20.92
2022-11-28T21:55:51.598Z,21.48
2022-11-28T21:58:26.642Z,21.52
2022-11-28T22:01:01.321Z,23.60
2022-11-28T22:03:33.539Z,26.17
2022-11-28T22:06:07.750Z,28.50
2022-11-28T22:08:39.685Z,28.10
2022-11-28T22:11:14.116Z,31.85
2022-11-28T22:13:46.768Z,26.35
2022-11-28T22:16:21.192Z,22.65
2022-11-28T22:18:55.579Z,22.60
2022-11-28T22:24:21.041Z,28.00
2022-11-28T22:26:55.311Z,24.42
2022-11-28T22:29:28.618Z,23.50
2022-11-28T22:32:00.581Z,25.48
2022-11-28T22:34:40.325Z,23.10
2022-11-28T22:37:12.939Z,23.58
2022-11-28T22:39:44.929Z,25.05
2022-11-28T22:42:18.760Z,24.08
2022-11-28T22:44:51.045Z,27.63
2022-11-28T22:47:23.008Z,22.90
2022-11-28T22:49:55.089Z,23.30
2022-11-28T22:52:27.657Z,24.50
2022-11-28T22:54:59.808Z,23.63
2022-11-28T22:57:33.247Z,24.48
2022-11-28T23:00:08.753Z,24.35
2022-11-28T23:02:40.947Z,23.95
2022-11-28T23:05:12.969Z,24.17
2022-11-28T23:07:45.215Z,24.25
2022-11-28T23:10:17.477Z,25.25
2022-11-28T23:12:50.855Z,24.60
2022-11-28T23:15:23.100Z,22.13
2022-11-28T23:17:55.526Z,21.50
2022-11-28T23:20:27.663Z,22.30
2022-11-28T23:22:59.659Z,26.92
2022-11-28T23:25:32.644Z,26.05
2022-11-28T23:28:07.306Z,29.48
2022-11-28T23:30:39.477Z,26.33
2022-11-28T23:33:11.509Z,27.45
2022-11-28T23:35:43.430Z,27.38
2022-11-28T23:38:15.760Z,29.38
2022-11-28T23:40:47.661Z,27.63
2022-11-28T23:43:21.027Z,29.55
2022-11-28T23:45:53.043Z,22.00
2022-11-28T23:48:25.066Z,25.75
2022-11-28T23:50:56.984Z,33.88
2022-11-28T23:53:28.946Z,25.10
2022-11-28T23:56:05.030Z,26.75
2022-11-28T23:58:38.813Z,21.85
